sensor_id;sensor_type;location;lat;lon;timestamp;temperature;humidity
5009;DHT22;2523;51.058;6.922;2023-06-22T00:00:58;23.60;99.90
5009;DHT22;2523;51.058;6.922;2023-06-22T00:03:24;23.60;99.90
5009;DHT22;2523;51.058;6.922;2023-06-22T00:05:51;23.60;99.90
5009;DHT22;2523;51.058;6.922;2023-06-22T00:08:18;23.60;99.90
5009;DHT22;2523;51.058;6.922;2023-06-22T00:10:44;23.60;99.90
5009;DHT22;2523;51.058;6.922;2023-06-22T00:13:10;23.60;99.90
5009;DHT22;2523;51.058;6.922;2023-06-22T00:15:37;23.60;99.90
5009;DHT22;2523;51.058;6.922;2023-06-22T00:18:04;23.60;99.90
5009;DHT22;2523;51.058;6.922;2023-06-22T00:20:30;23.60;99.90
5009;DHT22;2523;51.058;6.922;2023-06-22T00:22:57;23.60;99.90
5009;DHT22;2523;51.058;6.922;2023-06-22T00:25:23;23.60;99.90
5009;DHT22;2523;51.058;6.922;2023-06-22T00:27:49;23.50;99.90
5009;DHT22;2523;51.058;6.922;2023-06-22T00:30:16;23.50;99.90
5009;DHT22;2523;51.058;6.922;2023-06-22T00:32:43;23.60;99.90
5009;DHT22;2523;51.058;6.922;2023-06-22T00:35:09;23.60;99.90
5009;DHT22;2523;51.058;6.922;2023-06-22T00:37:36;23.60;99.90
5009;DHT22;2523;51.058;6.922;2023-06-22T00:40:02;23.50;99.90
5009;DHT22;2523;51.058;6.922;2023-06-22T00:42:29;23.60;99.90
5009;DHT22;2523;51.058;6.922;2023-06-22T00:44:54;23.60;99.90
5009;DHT22;2523;51.058;6.922;2023-06-22T00:47:20;23.60;99.90
5009;DHT22;2523;51.058;6.922;2023-06-22T00:49:47;23.60;99.90
5009;DHT22;2523;51.058;6.922;2023-06-22T00:52:14;23.60;99.90
5009;DHT22;2523;51.058;6.922;2023-06-22T00:54:47;23.60;99.90
5009;DHT22;2523;51.058;6.922;2023-06-22T00:57:14;23.50;99.90
5009;DHT22;2523;51.058;6.922;2023-06-22T00:59:47;23.60;99.90
5009;DHT22;2523;51.058;6.922;2023-06-22T01:02:13;23.50;99.90
5009;DHT22;2523;51.058;6.922;2023-06-22T01:04:39;23.50;99.90
5009;DHT22;2523;51.058;6.922;2023-06-22T01:07:38;23.50;99.90
5009;DHT22;2523;51.058;6.922;2023-06-22T01:12:58;23.50;99.90
5009;DHT22;2523;51.058;6.922;2023-06-22T01:18:30;23.40;99.90
5009;DHT22;2523;51.058;6.922;2023-06-22T01:20:56;23.40;99.90
5009;DHT22;2523;51.058;6.922;2023-06-22T01:26:21;23.40;99.90
5009;DHT22;2523;51.058;6.922;2023-06-22T01:28:52;23.40;99.90
5009;DHT22;2523;51.058;6.922;2023-06-22T01:31:26;23.40;99.90
5009;DHT22;2523;51.058;6.922;2023-06-22T01:33:58;23.40;99.90
5009;DHT22;2523;51.058;6.922;2023-06-22T01:36:25;23.40;99.90
5009;DHT22;2523;51.058;6.922;2023-06-22T01:38:52;23.40;99.90
5009;DHT22;2523;51.058;6.922;2023-06-22T01:41:19;23.40;99.90
5009;DHT22;2523;51.058;6.922;2023-06-22T01:43:46;23.40;99.90
5009;DHT22;2523;51.058;6.922;2023-06-22T01:46:12;23.40;99.90
5009;DHT22;2523;51.058;6.922;2023-06-22T01:48:39;23.30;99.90
5009;DHT22;2523;51.058;6.922;2023-06-22T01:51:05;23.30;99.90
5009;DHT22;2523;51.058;6.922;2023-06-22T01:53:30;23.20;99.90
5009;DHT22;2523;51.058;6.922;2023-06-22T01:55:56;23.20;99.90
5009;DHT22;2523;51.058;6.922;2023-06-22T01:58:25;23.20;99.90
5009;DHT22;2523;51.058;6.922;2023-06-22T02:01:10;23.20;99.90
5009;DHT22;2523;51.058;6.922;2023-06-22T02:03:42;23.20;99.90
5009;DHT22;2523;51.058;6.922;2023-06-22T02:06:16;23.10;99.90
5009;DHT22;2523;51.058;6.922;2023-06-22T02:08:53;23.20;99.90
5009;DHT22;2523;51.058;6.922;2023-06-22T02:11:21;23.10;99.90
5009;DHT22;2523;51.058;6.922;2023-06-22T02:13:48;23.10;99.90
5009;DHT22;2523;51.058;6.922;2023-06-22T02:16:14;23.10;99.90
5009;DHT22;2523;51.058;6.922;2023-06-22T02:18:48;23.00;99.90
5009;DHT22;2523;51.058;6.922;2023-06-22T02:21:19;23.00;99.90
5009;DHT22;2523;51.058;6.922;2023-06-22T02:23:45;23.00;99.90
5009;DHT22;2523;51.058;6.922;2023-06-22T02:26:11;23.00;99.90
5009;DHT22;2523;51.058;6.922;2023-06-22T02:28:37;22.90;99.90
5009;DHT22;2523;51.058;6.922;2023-06-22T02:31:02;22.90;99.90
5009;DHT22;2523;51.058;6.922;2023-06-22T02:33:28;22.90;99.90
5009;DHT22;2523;51.058;6.922;2023-06-22T02:35:53;22.90;99.90
5009;DHT22;2523;51.058;6.922;2023-06-22T02:38:19;22.90;99.90
5009;DHT22;2523;51.058;6.922;2023-06-22T02:40:45;22.90;99.90
5009;DHT22;2523;51.058;6.922;2023-06-22T02:43:11;22.90;99.90
5009;DHT22;2523;51.058;6.922;2023-06-22T02:45:36;22.90;99.90
5009;DHT22;2523;51.058;6.922;2023-06-22T02:48:02;22.90;99.90
5009;DHT22;2523;51.058;6.922;2023-06-22T02:50:27;22.90;99.90
5009;DHT22;2523;51.058;6.922;2023-06-22T02:52:54;23.00;99.90
5009;DHT22;2523;51.058;6.922;2023-06-22T02:55:20;23.00;99.90
5009;DHT22;2523;51.058;6.922;2023-06-22T02:57:45;23.00;99.90
5009;DHT22;2523;51.058;6.922;2023-06-22T03:00:13;23.00;99.90
5009;DHT22;2523;51.058;6.922;2023-06-22T03:02:45;22.90;99.90
5009;DHT22;2523;51.058;6.922;2023-06-22T03:05:11;22.90;99.90
5009;DHT22;2523;51.058;6.922;2023-06-22T03:07:40;22.90;99.90
5009;DHT22;2523;51.058;6.922;2023-06-22T03:10:06;22.90;99.90
5009;DHT22;2523;51.058;6.922;2023-06-22T03:12:32;22.90;99.90
5009;DHT22;2523;51.058;6.922;2023-06-22T03:14:57;22.90;99.90
5009;DHT22;2523;51.058;6.922;2023-06-22T03:17:23;22.90;99.90
5009;DHT22;2523;51.058;6.922;2023-06-22T03:19:49;22.90;99.90
5009;DHT22;2523;51.058;6.922;2023-06-22T03:22:14;22.90;99.90
5009;DHT22;2523;51.058;6.922;2023-06-22T03:24:40;22.80;99.90
5009;DHT22;2523;51.058;6.922;2023-06-22T03:27:06;22.80;99.90
5009;DHT22;2523;51.058;6.922;2023-06-22T03:29:31;22.80;99.90
5009;DHT22;2523;51.058;6.922;2023-06-22T03:31:57;22.80;99.90
5009;DHT22;2523;51.058;6.922;2023-06-22T03:34:22;22.80;99.90
5009;DHT22;2523;51.058;6.922;2023-06-22T03:36:48;22.70;99.90
5009;DHT22;2523;51.058;6.922;2023-06-22T03:39:13;22.70;99.90
5009;DHT22;2523;51.058;6.922;2023-06-22T03:41:39;22.60;99.90
5009;DHT22;2523;51.058;6.922;2023-06-22T03:44:04;22.60;99.90
5009;DHT22;2523;51.058;6.922;2023-06-22T03:46:30;22.60;99.90
5009;DHT22;2523;51.058;6.922;2023-06-22T03:48:55;22.60;99.90
5009;DHT22;2523;51.058;6.922;2023-06-22T03:51:21;22.60;99.90
5009;DHT22;2523;51.058;6.922;2023-06-22T03:53:46;22.60;99.90
5009;DHT22;2523;51.058;6.922;2023-06-22T03:56:13;22.60;99.90
5009;DHT22;2523;51.058;6.922;2023-06-22T03:58:45;22.60;99.90
5009;DHT22;2523;51.058;6.922;2023-06-22T04:01:10;22.60;99.90
5009;DHT22;2523;51.058;6.922;2023-06-22T04:03:37;22.60;99.90
5009;DHT22;2523;51.058;6.922;2023-06-22T04:06:02;22.60;99.90
5009;DHT22;2523;51.058;6.922;2023-06-22T04:08:28;22.60;99.90
5009;DHT22;2523;51.058;6.922;2023-06-22T04:10:53;22.50;99.90
5009;DHT22;2523;51.058;6.922;2023-06-22T04:13:19;22.50;99.90
5009;DHT22;2523;51.058;6.922;2023-06-22T04:15:45;22.60;99.90
5009;DHT22;2523;51.058;6.922;2023-06-22T04:18:10;22.60;99.90
5009;DHT22;2523;51.058;6.922;2023-06-22T04:20:36;22.60;99.90
5009;DHT22;2523;51.058;6.922;2023-06-22T04:23:02;22.70;99.90
5009;DHT22;2523;51.058;6.922;2023-06-22T04:25:27;22.70;99.90
5009;DHT22;2523;51.058;6.922;2023-06-22T04:27:53;22.70;99.90
5009;DHT22;2523;51.058;6.922;2023-06-22T04:30:18;22.80;99.90
5009;DHT22;2523;51.058;6.922;2023-06-22T04:32:45;22.80;99.90
5009;DHT22;2523;51.058;6.922;2023-06-22T04:35:11;22.90;99.90
5009;DHT22;2523;51.058;6.922;2023-06-22T04:37:37;22.90;99.90
5009;DHT22;2523;51.058;6.922;2023-06-22T04:40:03;23.00;99.90
5009;DHT22;2523;51.058;6.922;2023-06-22T04:42:30;22.90;99.90
5009;DHT22;2523;51.058;6.922;2023-06-22T04:44:57;23.00;99.90
5009;DHT22;2523;51.058;6.922;2023-06-22T04:47:22;23.00;99.90
5009;DHT22;2523;51.058;6.922;2023-06-22T04:49:48;23.00;99.90
5009;DHT22;2523;51.058;6.922;2023-06-22T04:52:14;22.90;99.90
5009;DHT22;2523;51.058;6.922;2023-06-22T04:54:43;23.00;99.90
5009;DHT22;2523;51.058;6.922;2023-06-22T04:57:13;23.00;99.90
5009;DHT22;2523;51.058;6.922;2023-06-22T04:59:39;23.00;99.90
5009;DHT22;2523;51.058;6.922;2023-06-22T05:02:07;23.00;99.90
5009;DHT22;2523;51.058;6.922;2023-06-22T05:04:33;23.00;99.90
5009;DHT22;2523;51.058;6.922;2023-06-22T05:07:01;22.90;99.90
5009;DHT22;2523;51.058;6.922;2023-06-22T05:09:27;23.00;99.90
5009;DHT22;2523;51.058;6.922;2023-06-22T05:11:53;23.00;99.90
5009;DHT22;2523;51.058;6.922;2023-06-22T05:14:19;23.00;99.90
5009;DHT22;2523;51.058;6.922;2023-06-22T05:16:45;23.10;99.90
5009;DHT22;2523;51.058;6.922;2023-06-22T05:19:11;23.10;99.90
5009;DHT22;2523;51.058;6.922;2023-06-22T05:21:37;23.20;99.90
5009;DHT22;2523;51.058;6.922;2023-06-22T05:24:03;23.20;99.90
5009;DHT22;2523;51.058;6.922;2023-06-22T05:26:33;23.20;99.90
5009;DHT22;2523;51.058;6.922;2023-06-22T05:29:00;23.20;99.90
5009;DHT22;2523;51.058;6.922;2023-06-22T05:31:26;23.20;99.90
5009;DHT22;2523;51.058;6.922;2023-06-22T05:33:53;23.10;99.90
5009;DHT22;2523;51.058;6.922;2023-06-22T05:36:19;23.10;99.90
5009;DHT22;2523;51.058;6.922;2023-06-22T05:38:47;23.20;99.90
5009;DHT22;2523;51.058;6.922;2023-06-22T05:41:13;23.20;99.90
5009;DHT22;2523;51.058;6.922;2023-06-22T05:43:39;23.10;99.90
5009;DHT22;2523;51.058;6.922;2023-06-22T05:46:05;23.10;99.90
5009;DHT22;2523;51.058;6.922;2023-06-22T05:48:31;23.00;99.90
5009;DHT22;2523;51.058;6.922;2023-06-22T05:50:57;23.10;99.90
5009;DHT22;2523;51.058;6.922;2023-06-22T05:53:22;23.00;99.90
5009;DHT22;2523;51.058;6.922;2023-06-22T05:55:48;22.90;99.90
5009;DHT22;2523;51.058;6.922;2023-06-22T05:58:14;22.80;99.90
5009;DHT22;2523;51.058;6.922;2023-06-22T06:00:40;22.40;99.90
5009;DHT22;2523;51.058;6.922;2023-06-22T06:03:10;22.00;99.90
5009;DHT22;2523;51.058;6.922;2023-06-22T06:05:36;21.80;99.90
5009;DHT22;2523;51.058;6.922;2023-06-22T06:08:04;21.60;99.90
5009;DHT22;2523;51.058;6.922;2023-06-22T06:10:31;21.50;99.90
5009;DHT22;2523;51.058;6.922;2023-06-22T06:12:57;21.50;99.90
5009;DHT22;2523;51.058;6.922;2023-06-22T06:15:22;21.40;99.90
5009;DHT22;2523;51.058;6.922;2023-06-22T06:17:52;21.30;99.90
5009;DHT22;2523;51.058;6.922;2023-06-22T06:20:20;21.40;99.90
5009;DHT22;2523;51.058;6.922;2023-06-22T06:22:46;21.40;99.90
5009;DHT22;2523;51.058;6.922;2023-06-22T06:25:12;21.50;99.90
5009;DHT22;2523;51.058;6.922;2023-06-22T06:27:45;21.60;99.90
5009;DHT22;2523;51.058;6.922;2023-06-22T06:30:12;21.60;99.90
5009;DHT22;2523;51.058;6.922;2023-06-22T06:32:38;21.70;99.90
5009;DHT22;2523;51.058;6.922;2023-06-22T06:35:09;21.70;99.90
5009;DHT22;2523;51.058;6.922;2023-06-22T06:37:45;21.90;99.90
5009;DHT22;2523;51.058;6.922;2023-06-22T06:40:12;21.90;99.90
5009;DHT22;2523;51.058;6.922;2023-06-22T06:42:39;21.80;99.90
5009;DHT22;2523;51.058;6.922;2023-06-22T06:45:08;21.80;99.90
5009;DHT22;2523;51.058;6.922;2023-06-22T06:47:33;21.90;99.90
5009;DHT22;2523;51.058;6.922;2023-06-22T06:49:59;21.90;99.90
5009;DHT22;2523;51.058;6.922;2023-06-22T06:52:25;22.00;99.90
5009;DHT22;2523;51.058;6.922;2023-06-22T06:54:51;21.90;99.90
5009;DHT22;2523;51.058;6.922;2023-06-22T06:57:18;21.90;99.90
5009;DHT22;2523;51.058;6.922;2023-06-22T06:59:43;22.00;99.90
5009;DHT22;2523;51.058;6.922;2023-06-22T07:02:09;22.00;99.90
5009;DHT22;2523;51.058;6.922;2023-06-22T07:04:34;22.10;99.90
5009;DHT22;2523;51.058;6.922;2023-06-22T07:07:01;22.10;99.90
5009;DHT22;2523;51.058;6.922;2023-06-22T07:09:27;22.10;99.90
5009;DHT22;2523;51.058;6.922;2023-06-22T07:11:52;22.30;99.90
5009;DHT22;2523;51.058;6.922;2023-06-22T07:14:18;22.30;99.90
5009;DHT22;2523;51.058;6.922;2023-06-22T07:16:44;22.40;99.90
5009;DHT22;2523;51.058;6.922;2023-06-22T07:19:11;22.40;99.90
5009;DHT22;2523;51.058;6.922;2023-06-22T07:21:37;22.40;99.90
5009;DHT22;2523;51.058;6.922;2023-06-22T07:24:02;22.40;99.90
5009;DHT22;2523;51.058;6.922;2023-06-22T07:26:28;22.50;99.90
5009;DHT22;2523;51.058;6.922;2023-06-22T07:28:53;22.60;99.90
5009;DHT22;2523;51.058;6.922;2023-06-22T07:31:19;22.60;99.90
5009;DHT22;2523;51.058;6.922;2023-06-22T07:33:44;22.60;99.90
5009;DHT22;2523;51.058;6.922;2023-06-22T07:36:10;22.70;99.90
5009;DHT22;2523;51.058;6.922;2023-06-22T07:38:35;22.70;99.90
5009;DHT22;2523;51.058;6.922;2023-06-22T07:41:02;22.90;99.90
5009;DHT22;2523;51.058;6.922;2023-06-22T07:43:30;23.10;99.90
5009;DHT22;2523;51.058;6.922;2023-06-22T07:45:58;23.10;99.90
5009;DHT22;2523;51.058;6.922;2023-06-22T07:48:24;23.10;99.90
5009;DHT22;2523;51.058;6.922;2023-06-22T07:50:49;23.20;99.90
5009;DHT22;2523;51.058;6.922;2023-06-22T07:53:15;23.30;99.90
5009;DHT22;2523;51.058;6.922;2023-06-22T07:55:40;23.50;99.90
5009;DHT22;2523;51.058;6.922;2023-06-22T07:58:06;23.70;99.90
5009;DHT22;2523;51.058;6.922;2023-06-22T08:00:31;23.80;99.90
5009;DHT22;2523;51.058;6.922;2023-06-22T08:02:58;23.80;99.90
5009;DHT22;2523;51.058;6.922;2023-06-22T08:05:24;23.90;99.90
5009;DHT22;2523;51.058;6.922;2023-06-22T08:07:50;24.10;99.90
5009;DHT22;2523;51.058;6.922;2023-06-22T08:10:15;24.20;99.90
5009;DHT22;2523;51.058;6.922;2023-06-22T08:12:41;24.30;99.90
5009;DHT22;2523;51.058;6.922;2023-06-22T08:15:07;24.40;99.90
5009;DHT22;2523;51.058;6.922;2023-06-22T08:17:34;24.50;99.90
5009;DHT22;2523;51.058;6.922;2023-06-22T08:20:01;24.70;99.90
5009;DHT22;2523;51.058;6.922;2023-06-22T08:22:28;24.60;99.90
5009;DHT22;2523;51.058;6.922;2023-06-22T08:24:55;24.70;99.90
5009;DHT22;2523;51.058;6.922;2023-06-22T08:27:21;24.90;99.90
5009;DHT22;2523;51.058;6.922;2023-06-22T08:29:49;25.00;99.90
5009;DHT22;2523;51.058;6.922;2023-06-22T08:32:15;25.10;99.90
5009;DHT22;2523;51.058;6.922;2023-06-22T08:34:40;25.20;99.90
5009;DHT22;2523;51.058;6.922;2023-06-22T08:37:08;25.40;99.90
5009;DHT22;2523;51.058;6.922;2023-06-22T08:39:34;25.60;99.90
5009;DHT22;2523;51.058;6.922;2023-06-22T08:42:00;25.60;99.90
5009;DHT22;2523;51.058;6.922;2023-06-22T08:44:25;25.70;99.90
5009;DHT22;2523;51.058;6.922;2023-06-22T08:46:51;25.70;99.90
5009;DHT22;2523;51.058;6.922;2023-06-22T08:49:16;25.60;99.90
5009;DHT22;2523;51.058;6.922;2023-06-22T08:51:42;25.80;99.90
5009;DHT22;2523;51.058;6.922;2023-06-22T08:54:09;26.00;99.90
5009;DHT22;2523;51.058;6.922;2023-06-22T08:56:35;26.20;99.90
5009;DHT22;2523;51.058;6.922;2023-06-22T08:59:01;26.50;99.90
5009;DHT22;2523;51.058;6.922;2023-06-22T09:01:27;26.70;99.90
5009;DHT22;2523;51.058;6.922;2023-06-22T09:03:52;26.80;99.90
5009;DHT22;2523;51.058;6.922;2023-06-22T09:06:23;26.70;99.90
5009;DHT22;2523;51.058;6.922;2023-06-22T09:08:48;26.80;99.90
5009;DHT22;2523;51.058;6.922;2023-06-22T09:11:14;26.80;99.90
5009;DHT22;2523;51.058;6.922;2023-06-22T09:13:40;26.90;99.90
5009;DHT22;2523;51.058;6.922;2023-06-22T09:16:05;27.00;99.90
5009;DHT22;2523;51.058;6.922;2023-06-22T09:18:32;27.20;99.90
5009;DHT22;2523;51.058;6.922;2023-06-22T09:20:57;26.90;99.90
5009;DHT22;2523;51.058;6.922;2023-06-22T09:23:22;27.00;99.90
5009;DHT22;2523;51.058;6.922;2023-06-22T09:25:48;27.00;99.90
5009;DHT22;2523;51.058;6.922;2023-06-22T09:28:14;27.10;99.90
5009;DHT22;2523;51.058;6.922;2023-06-22T09:30:40;27.20;99.90
5009;DHT22;2523;51.058;6.922;2023-06-22T09:33:06;27.20;99.90
5009;DHT22;2523;51.058;6.922;2023-06-22T09:35:31;27.40;99.90
5009;DHT22;2523;51.058;6.922;2023-06-22T09:37:57;27.60;99.90
5009;DHT22;2523;51.058;6.922;2023-06-22T09:40:22;27.80;99.90
5009;DHT22;2523;51.058;6.922;2023-06-22T09:42:48;27.90;99.90
5009;DHT22;2523;51.058;6.922;2023-06-22T09:45:13;28.00;99.90
5009;DHT22;2523;51.058;6.922;2023-06-22T09:47:39;28.00;99.90
5009;DHT22;2523;51.058;6.922;2023-06-22T09:50:05;28.00;99.90
5009;DHT22;2523;51.058;6.922;2023-06-22T09:52:31;28.10;99.90
5009;DHT22;2523;51.058;6.922;2023-06-22T09:54:56;28.10;99.90
5009;DHT22;2523;51.058;6.922;2023-06-22T09:57:22;28.10;99.90
5009;DHT22;2523;51.058;6.922;2023-06-22T09:59:47;28.10;99.90
5009;DHT22;2523;51.058;6.922;2023-06-22T10:02:13;28.20;99.90
5009;DHT22;2523;51.058;6.922;2023-06-22T10:04:39;28.20;99.90
5009;DHT22;2523;51.058;6.922;2023-06-22T10:07:05;28.20;99.90
5009;DHT22;2523;51.058;6.922;2023-06-22T10:09:31;28.10;99.90
5009;DHT22;2523;51.058;6.922;2023-06-22T10:11:57;27.90;99.90
5009;DHT22;2523;51.058;6.922;2023-06-22T10:14:22;27.80;99.90
5009;DHT22;2523;51.058;6.922;2023-06-22T10:16:52;27.70;99.90
5009;DHT22;2523;51.058;6.922;2023-06-22T10:19:17;27.50;99.90
5009;DHT22;2523;51.058;6.922;2023-06-22T10:21:43;27.30;99.90
5009;DHT22;2523;51.058;6.922;2023-06-22T10:24:08;27.10;99.90
5009;DHT22;2523;51.058;6.922;2023-06-22T10:26:35;26.80;99.90
5009;DHT22;2523;51.058;6.922;2023-06-22T10:29:02;26.60;99.90
5009;DHT22;2523;51.058;6.922;2023-06-22T10:31:29;26.40;99.90
5009;DHT22;2523;51.058;6.922;2023-06-22T10:33:55;26.30;99.90
5009;DHT22;2523;51.058;6.922;2023-06-22T10:36:21;26.10;99.90
5009;DHT22;2523;51.058;6.922;2023-06-22T10:38:47;25.90;99.90
5009;DHT22;2523;51.058;6.922;2023-06-22T10:41:13;25.60;99.90
5009;DHT22;2523;51.058;6.922;2023-06-22T10:43:39;25.30;99.90
5009;DHT22;2523;51.058;6.922;2023-06-22T10:46:04;25.20;99.90
5009;DHT22;2523;51.058;6.922;2023-06-22T10:48:30;24.80;99.90
5009;DHT22;2523;51.058;6.922;2023-06-22T10:50:55;24.60;99.90
5009;DHT22;2523;51.058;6.922;2023-06-22T10:53:21;24.50;99.90
5009;DHT22;2523;51.058;6.922;2023-06-22T10:55:47;24.40;99.90
5009;DHT22;2523;51.058;6.922;2023-06-22T10:58:13;24.40;99.90
5009;DHT22;2523;51.058;6.922;2023-06-22T11:00:38;24.30;99.90
5009;DHT22;2523;51.058;6.922;2023-06-22T11:03:04;24.20;99.90
5009;DHT22;2523;51.058;6.922;2023-06-22T11:05:29;24.20;99.90
5009;DHT22;2523;51.058;6.922;2023-06-22T11:07:55;24.00;99.90
5009;DHT22;2523;51.058;6.922;2023-06-22T11:10:20;24.00;99.90
5009;DHT22;2523;51.058;6.922;2023-06-22T11:12:46;23.90;99.90
5009;DHT22;2523;51.058;6.922;2023-06-22T11:15:11;23.80;99.90
5009;DHT22;2523;51.058;6.922;2023-06-22T11:17:37;23.80;99.90
5009;DHT22;2523;51.058;6.922;2023-06-22T11:20:03;23.70;99.90
5009;DHT22;2523;51.058;6.922;2023-06-22T11:22:39;23.70;99.90
5009;DHT22;2523;51.058;6.922;2023-06-22T11:25:05;23.60;99.90
5009;DHT22;2523;51.058;6.922;2023-06-22T11:27:31;23.60;99.90
5009;DHT22;2523;51.058;6.922;2023-06-22T11:29:56;23.60;99.90
5009;DHT22;2523;51.058;6.922;2023-06-22T11:32:22;23.60;99.90
5009;DHT22;2523;51.058;6.922;2023-06-22T11:34:48;23.70;99.90
5009;DHT22;2523;51.058;6.922;2023-06-22T11:37:13;23.80;99.90
5009;DHT22;2523;51.058;6.922;2023-06-22T11:39:40;23.80;99.90
5009;DHT22;2523;51.058;6.922;2023-06-22T11:42:06;23.80;99.90
5009;DHT22;2523;51.058;6.922;2023-06-22T11:44:32;23.80;99.90
5009;DHT22;2523;51.058;6.922;2023-06-22T11:46:57;23.90;99.90
5009;DHT22;2523;51.058;6.922;2023-06-22T11:49:23;24.00;99.90
5009;DHT22;2523;51.058;6.922;2023-06-22T11:51:48;23.90;99.90
5009;DHT22;2523;51.058;6.922;2023-06-22T11:54:14;24.00;99.90
5009;DHT22;2523;51.058;6.922;2023-06-22T11:56:40;24.10;99.90
5009;DHT22;2523;51.058;6.922;2023-06-22T11:59:05;23.80;99.90
5009;DHT22;2523;51.058;6.922;2023-06-22T12:01:31;23.70;99.90
5009;DHT22;2523;51.058;6.922;2023-06-22T12:03:58;23.60;99.90
5009;DHT22;2523;51.058;6.922;2023-06-22T12:06:23;23.40;99.90
5009;DHT22;2523;51.058;6.922;2023-06-22T12:08:49;23.30;99.90
5009;DHT22;2523;51.058;6.922;2023-06-22T12:11:15;23.40;99.90
5009;DHT22;2523;51.058;6.922;2023-06-22T12:13:40;23.50;99.90
5009;DHT22;2523;51.058;6.922;2023-06-22T12:16:06;23.50;99.90
5009;DHT22;2523;51.058;6.922;2023-06-22T12:18:32;23.70;99.90
5009;DHT22;2523;51.058;6.922;2023-06-22T12:20:58;23.80;99.90
5009;DHT22;2523;51.058;6.922;2023-06-22T12:23:23;24.00;99.90
5009;DHT22;2523;51.058;6.922;2023-06-22T12:25:49;24.20;99.90
5009;DHT22;2523;51.058;6.922;2023-06-22T12:28:14;24.50;99.90
5009;DHT22;2523;51.058;6.922;2023-06-22T12:30:40;24.40;99.90
5009;DHT22;2523;51.058;6.922;2023-06-22T12:33:06;24.40;99.90
5009;DHT22;2523;51.058;6.922;2023-06-22T12:35:31;24.30;99.90
5009;DHT22;2523;51.058;6.922;2023-06-22T12:37:57;24.40;99.90
5009;DHT22;2523;51.058;6.922;2023-06-22T12:40:22;24.30;99.90
5009;DHT22;2523;51.058;6.922;2023-06-22T12:42:48;24.30;99.90
5009;DHT22;2523;51.058;6.922;2023-06-22T12:45:14;24.40;99.90
5009;DHT22;2523;51.058;6.922;2023-06-22T12:47:40;24.30;99.90
5009;DHT22;2523;51.058;6.922;2023-06-22T12:50:06;24.40;99.90
5009;DHT22;2523;51.058;6.922;2023-06-22T12:52:32;24.50;99.90
5009;DHT22;2523;51.058;6.922;2023-06-22T12:54:57;24.70;99.90
5009;DHT22;2523;51.058;6.922;2023-06-22T12:57:23;25.00;99.90
5009;DHT22;2523;51.058;6.922;2023-06-22T12:59:49;25.00;99.90
5009;DHT22;2523;51.058;6.922;2023-06-22T13:02:14;25.00;99.90
5009;DHT22;2523;51.058;6.922;2023-06-22T13:04:40;25.00;1.00
5009;DHT22;2523;51.058;6.922;2023-06-22T13:07:05;24.80;99.90
5009;DHT22;2523;51.058;6.922;2023-06-22T13:09:31;25.00;99.90
5009;DHT22;2523;51.058;6.922;2023-06-22T13:11:56;24.90;1.00
5009;DHT22;2523;51.058;6.922;2023-06-22T13:14:22;24.80;1.00
5009;DHT22;2523;51.058;6.922;2023-06-22T13:16:48;25.00;1.00
5009;DHT22;2523;51.058;6.922;2023-06-22T13:19:13;25.30;99.90
5009;DHT22;2523;51.058;6.922;2023-06-22T13:21:39;25.40;99.90
5009;DHT22;2523;51.058;6.922;2023-06-22T13:24:06;25.70;1.00
5009;DHT22;2523;51.058;6.922;2023-06-22T13:26:31;25.70;99.90
5009;DHT22;2523;51.058;6.922;2023-06-22T13:28:57;25.90;1.00
5009;DHT22;2523;51.058;6.922;2023-06-22T13:31:23;26.00;8.90
5009;DHT22;2523;51.058;6.922;2023-06-22T13:33:48;26.00;99.90
5009;DHT22;2523;51.058;6.922;2023-06-22T13:36:17;26.10;1.00
5009;DHT22;2523;51.058;6.922;2023-06-22T13:38:43;25.90;1.00
5009;DHT22;2523;51.058;6.922;2023-06-22T13:41:08;25.90;99.90
5009;DHT22;2523;51.058;6.922;2023-06-22T13:43:34;26.00;1.00
5009;DHT22;2523;51.058;6.922;2023-06-22T13:46:00;25.80;1.00
5009;DHT22;2523;51.058;6.922;2023-06-22T13:48:25;25.70;1.00
5009;DHT22;2523;51.058;6.922;2023-06-22T13:50:52;25.90;1.00
5009;DHT22;2523;51.058;6.922;2023-06-22T13:53:17;26.10;99.90
5009;DHT22;2523;51.058;6.922;2023-06-22T13:55:43;26.40;22.80
5009;DHT22;2523;51.058;6.922;2023-06-22T13:58:09;26.50;99.90
5009;DHT22;2523;51.058;6.922;2023-06-22T14:00:34;26.40;1.00
5009;DHT22;2523;51.058;6.922;2023-06-22T14:03:00;26.30;1.00
5009;DHT22;2523;51.058;6.922;2023-06-22T14:05:25;26.40;1.00
5009;DHT22;2523;51.058;6.922;2023-06-22T14:07:51;26.30;1.00
5009;DHT22;2523;51.058;6.922;2023-06-22T14:10:17;26.20;1.00
5009;DHT22;2523;51.058;6.922;2023-06-22T14:12:42;26.20;19.50
5009;DHT22;2523;51.058;6.922;2023-06-22T14:15:08;26.30;1.00
5009;DHT22;2523;51.058;6.922;2023-06-22T14:17:34;26.10;1.00
5009;DHT22;2523;51.058;6.922;2023-06-22T14:19:59;26.10;1.00
5009;DHT22;2523;51.058;6.922;2023-06-22T14:22:25;26.00;1.00
5009;DHT22;2523;51.058;6.922;2023-06-22T14:24:52;25.90;1.00
5009;DHT22;2523;51.058;6.922;2023-06-22T14:27:18;25.80;1.00
5009;DHT22;2523;51.058;6.922;2023-06-22T14:29:43;25.80;1.00
5009;DHT22;2523;51.058;6.922;2023-06-22T14:32:09;25.60;1.00
5009;DHT22;2523;51.058;6.922;2023-06-22T14:34:35;25.60;1.00
5009;DHT22;2523;51.058;6.922;2023-06-22T14:37:05;25.60;1.00
5009;DHT22;2523;51.058;6.922;2023-06-22T14:39:31;25.70;99.90
5009;DHT22;2523;51.058;6.922;2023-06-22T14:41:57;25.80;99.90
5009;DHT22;2523;51.058;6.922;2023-06-22T14:44:22;25.80;99.90
5009;DHT22;2523;51.058;6.922;2023-06-22T14:46:48;25.60;99.90
5009;DHT22;2523;51.058;6.922;2023-06-22T14:49:13;25.40;99.90
5009;DHT22;2523;51.058;6.922;2023-06-22T14:51:39;25.20;99.90
5009;DHT22;2523;51.058;6.922;2023-06-22T14:54:04;25.10;99.90
5009;DHT22;2523;51.058;6.922;2023-06-22T14:56:30;25.10;99.90
5009;DHT22;2523;51.058;6.922;2023-06-22T14:58:55;25.00;99.90
5009;DHT22;2523;51.058;6.922;2023-06-22T15:01:21;25.10;99.90
5009;DHT22;2523;51.058;6.922;2023-06-22T15:03:47;25.10;99.90
5009;DHT22;2523;51.058;6.922;2023-06-22T15:06:12;25.30;99.90
5009;DHT22;2523;51.058;6.922;2023-06-22T15:08:39;25.40;99.90
5009;DHT22;2523;51.058;6.922;2023-06-22T15:11:05;25.50;99.90
5009;DHT22;2523;51.058;6.922;2023-06-22T15:13:31;25.70;1.00
5009;DHT22;2523;51.058;6.922;2023-06-22T15:16:00;25.70;99.90
5009;DHT22;2523;51.058;6.922;2023-06-22T15:18:26;25.50;99.90
5009;DHT22;2523;51.058;6.922;2023-06-22T15:20:53;25.20;1.00
5009;DHT22;2523;51.058;6.922;2023-06-22T15:23:18;25.10;1.00
5009;DHT22;2523;51.058;6.922;2023-06-22T15:25:44;25.00;1.00
5009;DHT22;2523;51.058;6.922;2023-06-22T15:28:11;24.80;1.00
5009;DHT22;2523;51.058;6.922;2023-06-22T15:30:37;24.60;99.90
5009;DHT22;2523;51.058;6.922;2023-06-22T15:33:02;24.20;65.80
5009;DHT22;2523;51.058;6.922;2023-06-22T15:35:28;24.10;1.00
5009;DHT22;2523;51.058;6.922;2023-06-22T15:37:54;23.80;99.90
5009;DHT22;2523;51.058;6.922;2023-06-22T15:40:19;23.60;99.90
5009;DHT22;2523;51.058;6.922;2023-06-22T15:42:45;23.40;99.90
5009;DHT22;2523;51.058;6.922;2023-06-22T15:45:12;23.30;99.90
5009;DHT22;2523;51.058;6.922;2023-06-22T15:47:38;23.10;99.90
5009;DHT22;2523;51.058;6.922;2023-06-22T15:50:03;23.10;99.90
5009;DHT22;2523;51.058;6.922;2023-06-22T15:52:29;22.90;99.90
5009;DHT22;2523;51.058;6.922;2023-06-22T15:54:55;23.00;99.90
5009;DHT22;2523;51.058;6.922;2023-06-22T15:57:23;22.80;99.90
5009;DHT22;2523;51.058;6.922;2023-06-22T15:59:50;22.70;99.90
5009;DHT22;2523;51.058;6.922;2023-06-22T16:02:15;22.60;99.90
5009;DHT22;2523;51.058;6.922;2023-06-22T16:04:41;22.70;99.90